createdAt,value
2022-08-09T00:00:21.581Z,19.20
2022-08-09T00:02:51.514Z,20.70
2022-08-09T00:06:19.203Z,18.90
2022-08-09T00:08:11.422Z,19.60
2022-08-09T00:10:41.208Z,18.60
2022-08-09T00:13:17.147Z,18.60
2022-08-09T00:15:59.133Z,18.60
2022-08-09T00:18:34.570Z,18.60
2022-08-09T00:21:05.391Z,18.50
2022-08-09T00:23:57.368Z,21.20
2022-08-09T00:26:29.759Z,18.50
2022-08-09T00:29:03.855Z,18.50
2022-08-09T00:31:59.594Z,18.40
2022-08-09T00:34:27.637Z,18.40
2022-08-09T00:37:00.245Z,18.40
2022-08-09T00:40:13.364Z,18.40
2022-08-09T00:44:11.596Z,18.30
2022-08-09T00:45:03.630Z,18.30
2022-08-09T00:47:43.306Z,21.00
2022-08-09T00:50:14.492Z,18.20
2022-08-09T00:52:43.325Z,19.60
2022-08-09T00:55:16.684Z,20.00
2022-08-09T00:57:59.250Z,18.10
2022-08-09T01:00:27.411Z,19.40
2022-08-09T01:03:13.687Z,19.10
2022-08-09T01:06:03.917Z,18.10
2022-08-09T01:09:24.553Z,18.10
2022-08-09T01:12:27.537Z,18.00
2022-08-09T01:15:22.038Z,18.00
2022-08-09T01:18:10.312Z,19.00
2022-08-09T01:20:55.522Z,17.90
2022-08-09T01:24:05.283Z,17.90
2022-08-09T01:26:54.466Z,17.90
2022-08-09T01:29:55.711Z,17.90
2022-08-09T01:32:34.914Z,17.90
2022-08-09T01:35:28.257Z,17.80
2022-08-09T01:38:10.259Z,17.80
2022-08-09T01:40:44.992Z,19.20
2022-08-09T01:43:24.207Z,19.60
2022-08-09T01:45:54.485Z,17.80
2022-08-09T01:48:29.586Z,17.80
2022-08-09T01:51:00.411Z,17.80
2022-08-09T01:53:40.917Z,19.80
2022-08-09T01:56:12.299Z,17.70
2022-08-09T01:58:43.746Z,18.60
2022-08-09T02:01:18.329Z,17.70
2022-08-09T02:03:47.410Z,18.80
2022-08-09T02:06:38.557Z,19.50
2022-08-09T02:09:16.423Z,17.70
2022-08-09T02:11:44.486Z,17.70
2022-08-09T02:14:26.248Z,20.10
2022-08-09T02:17:09.008Z,17.60
2022-08-09T02:19:44.589Z,17.60
2022-08-09T02:22:35.042Z,17.60
2022-08-09T02:25:09.980Z,17.60
2022-08-09T02:28:11.434Z,17.50
2022-08-09T02:30:52.107Z,17.50
2022-08-09T02:33:38.409Z,19.80
2022-08-09T02:36:18.976Z,18.80
2022-08-09T02:38:53.374Z,17.40
2022-08-09T02:41:31.272Z,17.40
2022-08-09T02:44:13.665Z,17.40
2022-08-09T02:46:56.678Z,18.70
2022-08-09T02:49:27.115Z,17.30
2022-08-09T02:52:08.416Z,17.20
2022-08-09T02:54:54.669Z,17.20
2022-08-09T02:57:26.877Z,18.70
2022-08-09T03:00:21.375Z,19.20
2022-08-09T03:02:58.482Z,17.10
2022-08-09T03:05:29.856Z,17.10
2022-08-09T03:08:04.481Z,17.50
2022-08-09T03:10:35.341Z,17.00
2022-08-09T03:13:08.473Z,18.30
2022-08-09T03:15:40.589Z,17.30
2022-08-09T03:18:31.251Z,16.90
2022-08-09T03:21:00.638Z,18.20
2022-08-09T03:23:28.422Z,18.90
2022-08-09T03:26:03.569Z,16.80
2022-08-09T03:28:34.896Z,19.00
2022-08-09T03:31:09.880Z,16.80
2022-08-09T03:33:53.135Z,18.10
2022-08-09T03:36:27.688Z,16.70
2022-08-09T03:38:56.444Z,16.70
2022-08-09T03:41:29.957Z,16.70
2022-08-09T03:44:10.287Z,16.70
2022-08-09T03:46:39.254Z,17.50
2022-08-09T03:49:09.552Z,17.40
2022-08-09T03:51:57.792Z,17.00
2022-08-09T03:54:40.835Z,18.30
2022-08-09T03:57:20.124Z,16.70
2022-08-09T03:59:54.341Z,16.60
2022-08-09T04:02:30.024Z,16.50
2022-08-09T04:05:06.004Z,18.10
2022-08-09T04:07:52.558Z,18.40
2022-08-09T04:10:28.715Z,16.50
2022-08-09T04:13:03.967Z,16.50
2022-08-09T04:16:18.208Z,16.50
2022-08-09T04:18:21.514Z,16.50
2022-08-09T04:20:51.425Z,16.50
2022-08-09T04:23:24.303Z,16.40
2022-08-09T04:25:53.034Z,16.50
2022-08-09T04:28:33.195Z,17.80
2022-08-09T04:31:09.234Z,16.40
2022-08-09T04:33:51.869Z,17.40
2022-08-09T04:36:24.280Z,18.40
2022-08-09T04:38:52.398Z,16.40
2022-08-09T04:41:19.796Z,16.40
2022-08-09T04:44:06.603Z,16.40
2022-08-09T04:46:57.209Z,17.60
2022-08-09T04:49:40.096Z,18.60
2022-08-09T04:52:18.580Z,16.40
2022-08-09T04:54:51.607Z,17.40
2022-08-09T04:57:24.496Z,16.40
2022-08-09T04:59:56.083Z,18.60
2022-08-09T05:02:27.346Z,17.10
2022-08-09T05:04:55.606Z,16.40
2022-08-09T05:07:24.500Z,17.50
2022-08-09T05:09:51.450Z,17.50
2022-08-09T05:12:21.199Z,17.70
2022-08-09T05:14:49.808Z,16.50
2022-08-09T05:18:39.352Z,16.50
2022-08-09T05:20:05.440Z,18.40
2022-08-09T05:22:36.548Z,16.60
2022-08-09T05:25:24.221Z,17.20
2022-08-09T05:27:55.386Z,17.50
2022-08-09T05:30:22.577Z,18.30
2022-08-09T05:32:50.869Z,16.80
2022-08-09T05:35:22.021Z,19.10
2022-08-09T05:37:50.320Z,18.40
2022-08-09T05:40:18.336Z,17.10
2022-08-09T05:42:46.040Z,17.10
2022-08-09T05:45:14.284Z,17.20
2022-08-09T05:47:51.727Z,17.30
2022-08-09T05:50:25.547Z,17.50
2022-08-09T05:53:02.321Z,18.00
2022-08-09T05:55:29.408Z,18.90
2022-08-09T05:57:58.775Z,18.50
2022-08-09T06:00:32.871Z,19.90
2022-08-09T06:03:03.886Z,20.30
2022-08-09T06:05:56.872Z,18.00
2022-08-09T06:08:25.213Z,18.20
2022-08-09T06:10:55.364Z,18.30
2022-08-09T06:13:23.189Z,19.40
2022-08-09T06:15:52.351Z,18.50
2022-08-09T06:18:24.778Z,18.70
2022-08-09T06:20:58.435Z,18.80
2022-08-09T06:23:55.033Z,18.90
2022-08-09T06:26:20.509Z,19.00
2022-08-09T06:28:59.297Z,19.60
2022-08-09T06:31:31.227Z,19.40
2022-08-09T06:34:07.292Z,19.40
2022-08-09T06:36:34.641Z,21.10
2022-08-09T06:39:02.735Z,19.60
2022-08-09T06:42:00.485Z,19.80
2022-08-09T06:44:25.684Z,21.10
2022-08-09T06:46:55.171Z,22.00
2022-08-09T06:49:29.342Z,20.30
2022-08-09T06:52:12.098Z,20.20
2022-08-09T06:54:42.579Z,20.30
2022-08-09T06:57:12.021Z,20.50
2022-08-09T07:00:55.799Z,20.60
2022-08-09T07:02:29.269Z,20.70
2022-08-09T07:04:58.289Z,21.80
2022-08-09T07:07:28.617Z,22.80
2022-08-09T07:10:29.820Z,21.70
2022-08-09T07:13:00.108Z,21.40
2022-08-09T07:16:38.753Z,22.70
2022-08-09T07:18:19.692Z,21.50
2022-08-09T07:20:47.751Z,21.60
2022-08-09T07:23:18.940Z,22.20
2022-08-09T07:25:55.413Z,21.80
2022-08-09T07:28:34.784Z,22.00
2022-08-09T07:31:04.924Z,22.10
2022-08-09T07:33:52.986Z,23.50
2022-08-09T07:36:20.571Z,22.40
2022-08-09T07:38:58.201Z,22.50
2022-08-09T07:41:27.668Z,24.30
2022-08-09T07:44:00.370Z,24.60
2022-08-09T07:46:28.091Z,22.90
2022-08-09T07:48:58.936Z,23.00
2022-08-09T07:52:05.143Z,24.40
2022-08-09T07:54:14.185Z,23.30
2022-08-09T07:56:49.163Z,24.70
2022-08-09T07:59:34.790Z,26.30
2022-08-09T08:02:09.013Z,26.30
2022-08-09T08:04:37.225Z,24.90
2022-08-09T08:07:09.483Z,24.00
2022-08-09T08:09:54.944Z,24.10
2022-08-09T08:12:42.311Z,24.30
2022-08-09T08:15:23.070Z,25.20
2022-08-09T08:17:53.868Z,24.50
2022-08-09T08:20:30.501Z,26.00
2022-08-09T08:23:06.901Z,24.60
2022-08-09T08:25:48.537Z,24.70
2022-08-09T08:28:26.236Z,24.80
2022-08-09T08:31:04.872Z,24.90
2022-08-09T08:33:53.832Z,25.00
2022-08-09T08:36:29.620Z,27.40
2022-08-09T08:38:59.944Z,25.20
2022-08-09T08:41:41.912Z,23.40
2022-08-09T08:44:23.107Z,25.50
2022-08-09T08:47:02.139Z,25.50
2022-08-09T08:49:38.494Z,26.90
2022-08-09T08:52:58.202Z,27.80
2022-08-09T08:55:08.795Z,25.90
2022-08-09T08:57:37.407Z,26.00
2022-08-09T09:00:17.222Z,26.20
2022-08-09T09:02:52.667Z,26.20
2022-08-09T09:05:57.358Z,26.30
2022-08-09T09:08:30.537Z,27.30
2022-08-09T09:11:03.003Z,26.50
2022-08-09T09:13:55.735Z,26.80
2022-08-09T09:16:30.341Z,27.60
2022-08-09T09:19:36.990Z,26.80
2022-08-09T09:22:11.227Z,26.80
2022-08-09T09:24:59.315Z,26.80
2022-08-09T09:28:05.188Z,26.80
2022-08-09T09:30:47.392Z,27.10
2022-08-09T09:33:16.751Z,27.10
2022-08-09T09:36:19.923Z,27.20
2022-08-09T09:38:58.129Z,27.30
2022-08-09T09:41:33.316Z,27.50
2022-08-09T09:44:25.923Z,27.70
2022-08-09T09:47:10.121Z,28.30
2022-08-09T09:49:56.202Z,28.00
2022-08-09T09:52:52.263Z,28.10
2022-08-09T09:55:28.307Z,28.30
2022-08-09T09:58:17.435Z,28.40
2022-08-09T10:00:59.546Z,28.90
2022-08-09T10:03:57.063Z,28.50
2022-08-09T10:06:32.051Z,28.70
2022-08-09T10:09:21.509Z,28.80
2022-08-09T10:12:14.803Z,29.60
2022-08-09T10:14:49.954Z,29.00
2022-08-09T10:17:50.875Z,29.00
2022-08-09T10:20:32.898Z,30.60
2022-08-09T10:23:20.029Z,29.70
2022-08-09T10:26:06.997Z,29.00
2022-08-09T10:28:40.611Z,29.60
2022-08-09T10:34:10.231Z,29.10
2022-08-09T10:36:45.405Z,29.10
2022-08-09T10:39:16.118Z,29.20
2022-08-09T10:41:47.999Z,29.20
2022-08-09T10:44:21.904Z,29.50
2022-08-09T10:48:17.119Z,29.50
2022-08-09T10:51:08.978Z,29.70
2022-08-09T10:53:55.245Z,29.80
2022-08-09T10:56:31.308Z,29.80
2022-08-09T10:59:01.123Z,30.30
2022-08-09T11:03:14.572Z,29.70
2022-08-09T11:04:31.003Z,29.70
2022-08-09T11:06:59.975Z,29.70
2022-08-09T11:09:41.200Z,29.70
2022-08-09T11:12:29.878Z,29.90
2022-08-09T11:15:01.325Z,30.00
2022-08-09T11:17:31.757Z,31.00
2022-08-09T11:20:07.833Z,30.30
2022-08-09T11:22:45.169Z,30.60
2022-08-09T11:25:15.344Z,31.00
2022-08-09T11:28:02.561Z,31.10
2022-08-09T11:30:35.534Z,31.30
2022-08-09T11:33:03.128Z,31.40
2022-08-09T11:35:50.177Z,31.30
2022-08-09T11:38:28.642Z,31.40
2022-08-09T11:41:16.482Z,31.40
2022-08-09T11:43:49.158Z,31.50
2022-08-09T11:46:26.756Z,31.60
2022-08-09T11:49:04.913Z,31.60
2022-08-09T11:52:59.107Z,31.60
2022-08-09T11:55:53.163Z,31.50
2022-08-09T11:58:30.098Z,31.50
2022-08-09T12:01:37.495Z,31.50
2022-08-09T12:04:23.719Z,31.80
2022-08-09T12:06:56.365Z,32.00
2022-08-09T12:09:34.003Z,32.10
2022-08-09T12:12:12.370Z,32.20
2022-08-09T12:15:08.123Z,32.20
2022-08-09T12:17:34.363Z,32.20
2022-08-09T12:20:22.803Z,32.10
2022-08-09T12:22:58.122Z,32.00
2022-08-09T12:25:36.492Z,32.10
2022-08-09T12:29:14.708Z,32.10
2022-08-09T12:32:02.762Z,32.20
2022-08-09T12:34:40.485Z,32.20
2022-08-09T12:37:24.084Z,32.40
2022-08-09T12:40:08.429Z,32.50
2022-08-09T12:42:36.235Z,32.60
2022-08-09T12:45:32.212Z,32.90
2022-08-09T12:47:53.670Z,32.90
2022-08-09T12:50:23.672Z,32.90
2022-08-09T12:53:08.218Z,32.90
2022-08-09T12:56:16.128Z,32.90
2022-08-09T12:58:27.191Z,32.80
2022-08-09T13:00:55.545Z,33.00
2022-08-09T13:03:53.515Z,33.00
2022-08-09T13:06:34.674Z,33.10
2022-08-09T13:09:16.893Z,33.90
2022-08-09T13:11:47.933Z,33.30
2022-08-09T13:14:41.026Z,34.50
2022-08-09T13:17:21.814Z,33.60
2022-08-09T13:20:14.068Z,34.90
2022-08-09T13:23:06.021Z,33.80
2022-08-09T13:25:54.410Z,33.80
2022-08-09T13:28:34.606Z,33.70
2022-08-09T13:32:17.961Z,33.70
2022-08-09T13:33:56.649Z,33.70
2022-08-09T13:36:42.064Z,33.90
2022-08-09T13:41:20.893Z,33.80
2022-08-09T13:42:12.515Z,35.40
2022-08-09T13:44:43.090Z,34.10
2022-08-09T13:47:27.705Z,34.10
2022-08-09T13:50:18.091Z,36.10
2022-08-09T13:52:57.201Z,34.10
2022-08-09T13:55:24.694Z,34.20
2022-08-09T13:57:58.066Z,34.20
2022-08-09T14:00:27.281Z,34.30
2022-08-09T14:03:03.466Z,35.30
2022-08-09T14:05:58.952Z,34.50
2022-08-09T14:08:31.591Z,34.60
2022-08-09T14:10:59.523Z,34.80
2022-08-09T14:14:22.720Z,35.00
2022-08-09T14:16:19.422Z,35.10
2022-08-09T14:18:51.715Z,35.20
2022-08-09T14:21:24.002Z,35.30
2022-08-09T14:23:56.529Z,35.40
2022-08-09T14:26:37.767Z,35.60
2022-08-09T14:30:15.098Z,35.70
2022-08-09T14:31:55.815Z,35.80
2022-08-09T14:34:31.892Z,35.90
2022-08-09T14:37:08.111Z,35.90
2022-08-09T14:39:46.962Z,36.20
2022-08-09T14:42:30.922Z,35.80
2022-08-09T14:46:39.618Z,35.70
2022-08-09T14:47:58.609Z,35.60
2022-08-09T14:50:30.388Z,35.70
2022-08-09T14:52:59.436Z,35.60
2022-08-09T14:55:32.210Z,35.80
2022-08-09T14:58:02.740Z,35.60
2022-08-09T15:00:33.343Z,35.50
2022-08-09T15:03:03.611Z,35.50
2022-08-09T15:05:32.016Z,36.50
2022-08-09T15:07:59.029Z,35.50
2022-08-09T15:10:27.777Z,35.70
2022-08-09T15:12:57.122Z,35.70
2022-08-09T15:15:28.478Z,35.70
2022-08-09T15:17:58.452Z,35.70
2022-08-09T15:22:01.116Z,35.60
2022-08-09T15:24:00.874Z,35.50
2022-08-09T15:26:01.083Z,35.50
2022-08-09T15:28:33.096Z,35.40
2022-08-09T15:31:13.393Z,35.30
2022-08-09T15:34:33.408Z,35.30
2022-08-09T15:36:32.329Z,35.10
2022-08-09T15:39:00.694Z,35.10
2022-08-09T15:41:31.217Z,35.10
2022-08-09T15:44:03.037Z,35.00
2022-08-09T15:46:34.481Z,34.90
2022-08-09T15:49:21.001Z,34.80
2022-08-09T15:52:04.113Z,34.50
2022-08-09T15:54:46.176Z,34.50
2022-08-09T15:57:35.195Z,34.10
2022-08-09T16:00:24.368Z,33.90
2022-08-09T16:02:56.592Z,33.50
2022-08-09T16:05:47.109Z,33.20
2022-08-09T16:08:30.465Z,32.90
2022-08-09T16:11:03.559Z,33.00
2022-08-09T16:14:04.192Z,33.00
2022-08-09T16:16:28.245Z,33.80
2022-08-09T16:18:55.647Z,33.10
2022-08-09T16:21:25.777Z,33.30
2022-08-09T16:23:58.860Z,33.50
2022-08-09T16:26:35.145Z,33.70
2022-08-09T16:29:12.524Z,33.60
2022-08-09T16:32:19.941Z,33.60
2022-08-09T16:34:56.121Z,33.70
2022-08-09T16:37:55.626Z,33.80
2022-08-09T16:40:29.456Z,33.90
2022-08-09T16:43:04.336Z,33.90
2022-08-09T16:45:31.999Z,34.00
2022-08-09T16:48:38.160Z,34.20
2022-08-09T16:50:49.721Z,34.40
2022-08-09T16:53:34.039Z,34.40
2022-08-09T16:56:06.293Z,34.50
2022-08-09T16:58:49.942Z,34.50
2022-08-09T17:01:19.384Z,34.60
2022-08-09T17:03:50.706Z,34.60
2022-08-09T17:06:31.373Z,35.00
2022-08-09T17:09:12.205Z,34.60
2022-08-09T17:11:48.163Z,34.60
2022-08-09T17:14:25.685Z,34.50
2022-08-09T17:17:02.260Z,34.30
2022-08-09T17:20:06.048Z,34.10
2022-08-09T17:22:30.713Z,33.90
2022-08-09T17:25:03.678Z,33.70
2022-08-09T17:27:38.361Z,33.40
2022-08-09T17:30:14.082Z,33.10
2022-08-09T17:32:44.261Z,32.80
2022-08-09T17:35:14.041Z,32.60
2022-08-09T17:38:11.282Z,32.30
2022-08-09T17:40:32.758Z,32.00
2022-08-09T17:43:32.930Z,33.40
2022-08-09T17:46:03.463Z,32.20
2022-08-09T17:48:39.573Z,31.60
2022-08-09T17:51:18.628Z,31.50
2022-08-09T17:53:54.962Z,31.70
2022-08-09T17:56:35.183Z,33.50
2022-08-09T17:59:09.206Z,32.00
2022-08-09T18:01:40.945Z,32.30
2022-08-09T18:04:25.922Z,32.30
2022-08-09T18:06:55.010Z,32.50
2022-08-09T18:09:35.783Z,32.80
2022-08-09T18:12:17.734Z,32.70
2022-08-09T18:14:54.608Z,32.70
2022-08-09T18:18:01.801Z,32.70
2022-08-09T18:20:53.815Z,32.70
2022-08-09T18:23:05.347Z,32.60
2022-08-09T18:25:50.292Z,34.20
2022-08-09T18:30:39.325Z,32.60
2022-08-09T18:31:15.577Z,32.50
2022-08-09T18:33:53.139Z,32.40
2022-08-09T18:36:25.842Z,32.30
2022-08-09T18:39:02.875Z,32.20
2022-08-09T18:41:34.299Z,32.10
2022-08-09T18:44:03.612Z,31.90
2022-08-09T18:46:49.688Z,31.80
2022-08-09T18:49:23.644Z,31.60
2022-08-09T18:51:55.391Z,31.40
2022-08-09T18:54:29.051Z,31.20
2022-08-09T18:57:06.241Z,32.00
2022-08-09T18:59:48.471Z,30.80
2022-08-09T19:02:17.711Z,31.80
2022-08-09T19:04:47.492Z,30.20
2022-08-09T19:07:27.683Z,30.70
2022-08-09T19:10:14.248Z,29.60
2022-08-09T19:12:54.986Z,29.30
2022-08-09T19:15:27.003Z,29.80
2022-08-09T19:17:54.917Z,28.90
2022-08-09T19:20:23.791Z,28.80
2022-08-09T19:22:54.861Z,28.00
2022-08-09T19:25:41.812Z,27.70
2022-08-09T19:28:13.463Z,27.50
2022-08-09T19:30:44.462Z,27.30
2022-08-09T19:33:19.333Z,27.00
2022-08-09T19:35:56.883Z,26.90
2022-08-09T19:38:27.493Z,27.00
2022-08-09T19:40:57.563Z,26.50
2022-08-09T19:44:00.480Z,27.20
2022-08-09T19:46:14.933Z,26.20
2022-08-09T19:49:00.397Z,26.50
2022-08-09T19:51:31.016Z,27.80
2022-08-09T19:53:59.528Z,25.80
2022-08-09T19:56:29.311Z,25.80
2022-08-09T19:59:39.393Z,25.60
2022-08-09T20:01:52.210Z,26.20
2022-08-09T20:04:36.667Z,25.60
2022-08-09T20:07:06.316Z,25.30
2022-08-09T20:09:44.991Z,25.30
2022-08-09T20:12:27.506Z,25.20
2022-08-09T20:15:04.576Z,25.10
2022-08-09T20:17:48.407Z,25.00
2022-08-09T20:20:19.786Z,25.60
2022-08-09T20:22:48.941Z,25.00
2022-08-09T20:25:22.369Z,27.00
2022-08-09T20:27:51.007Z,24.80
2022-08-09T20:30:21.712Z,24.70
2022-08-09T20:32:52.225Z,27.00
2022-08-09T20:35:20.792Z,24.60
2022-08-09T20:38:20.585Z,24.50
2022-08-09T20:40:37.036Z,24.50
2022-08-09T20:43:18.993Z,24.50
2022-08-09T20:45:56.787Z,25.00
2022-08-09T20:48:25.711Z,24.40
2022-08-09T20:50:58.059Z,26.40
2022-08-09T20:53:36.781Z,24.30
2022-08-09T20:56:20.919Z,24.90
2022-08-09T20:58:54.653Z,24.20
2022-08-09T21:01:34.242Z,24.30
2022-08-09T21:05:54.410Z,24.10
2022-08-09T21:07:11.854Z,24.10
2022-08-09T21:09:57.031Z,24.00
2022-08-09T21:15:16.231Z,25.00
2022-08-09T21:18:23.528Z,23.90
2022-08-09T21:20:33.073Z,24.10
2022-08-09T21:23:04.205Z,23.80
2022-08-09T21:25:56.432Z,24.00
2022-08-09T21:28:36.519Z,23.70
2022-08-09T21:31:17.416Z,23.70
2022-08-09T21:33:52.771Z,26.00
2022-08-09T21:36:29.154Z,25.20
2022-08-09T21:39:00.018Z,23.80
2022-08-09T21:42:04.668Z,23.50
2022-08-09T21:44:33.798Z,23.40
2022-08-09T21:47:08.902Z,23.30
2022-08-09T21:49:39.289Z,23.30
2022-08-09T21:52:15.028Z,24.60
2022-08-09T21:54:59.418Z,24.30
2022-08-09T21:57:58.470Z,23.10
2022-08-09T22:00:33.642Z,23.50
2022-08-09T22:03:05.756Z,23.00
2022-08-09T22:05:37.428Z,23.00
2022-08-09T22:08:14.627Z,22.90
2022-08-09T22:11:04.785Z,22.90
2022-08-09T22:13:34.645Z,22.80
2022-08-09T22:16:07.486Z,23.10
2022-08-09T22:18:37.625Z,22.70
2022-08-09T22:21:09.606Z,22.60
2022-08-09T22:23:59.593Z,22.70
2022-08-09T22:26:35.307Z,22.50
2022-08-09T22:29:10.039Z,23.10
2022-08-09T22:31:50.474Z,22.40
2022-08-09T22:34:26.173Z,23.10
2022-08-09T22:36:58.727Z,22.20
2022-08-09T22:39:55.448Z,22.10
2022-08-09T22:42:21.500Z,23.70
2022-08-09T22:48:04.475Z,22.00
2022-08-09T22:48:11.234Z,21.90
2022-08-09T22:50:27.288Z,21.90
2022-08-09T22:52:57.634Z,22.30
2022-08-09T22:55:39.384Z,21.80
2022-08-09T22:58:31.043Z,21.70
2022-08-09T23:01:06.283Z,22.80
2022-08-09T23:04:04.868Z,21.60
2022-08-09T23:06:32.604Z,21.60
2022-08-09T23:09:07.649Z,21.50
2022-08-09T23:11:35.213Z,21.40
2022-08-09T23:14:03.520Z,22.40
2022-08-09T23:16:31.689Z,21.30
2022-08-09T23:18:58.605Z,23.20
2022-08-09T23:21:30.065Z,21.30
2022-08-09T23:24:06.100Z,22.20
2022-08-09T23:26:39.223Z,21.20
2022-08-09T23:29:11.412Z,21.20
2022-08-09T23:31:38.315Z,21.20
2022-08-09T23:34:05.335Z,23.30
2022-08-09T23:36:34.631Z,22.40
2022-08-09T23:39:02.244Z,21.10
2022-08-09T23:41:29.772Z,21.70
2022-08-09T23:44:02.416Z,21.10
2022-08-09T23:46:31.020Z,22.20
2022-08-09T23:48:59.747Z,21.00
2022-08-09T23:51:27.402Z,21.00
2022-08-09T23:54:02.146Z,20.90
2022-08-09T23:56:52.884Z,21.70
2022-08-09T23:59:20.563Z,20.90
